createdAt,value
2018-04-24T00:01:22.309Z,5.67
2018-04-24T00:03:50.736Z,5.47
2018-04-24T00:06:19.182Z,5.67
2018-04-24T00:08:47.614Z,5.77
2018-04-24T00:11:16.077Z,6.57
2018-04-24T00:13:44.509Z,6.30
2018-04-24T00:16:12.934Z,6.10
2018-04-24T00:18:41.357Z,5.80
2018-04-24T00:21:09.791Z,6.30
2018-04-24T00:23:38.285Z,6.50
2018-04-24T00:26:06.872Z,6.37
2018-04-24T00:28:35.434Z,6.13
2018-04-24T00:31:03.636Z,5.80
2018-04-24T00:33:32.843Z,5.63
2018-04-24T00:36:02.026Z,5.50
2018-04-24T00:38:31.234Z,5.70
2018-04-24T00:41:00.428Z,6.00
2018-04-24T00:43:29.633Z,5.93
2018-04-24T00:45:58.087Z,7.23
2018-04-24T00:48:26.531Z,6.77
2018-04-24T00:50:54.957Z,5.77
2018-04-24T00:53:35.357Z,5.93
2018-04-24T00:56:03.908Z,5.90
2018-04-24T00:58:32.401Z,6.03
2018-04-24T01:01:00.831Z,5.47
2018-04-24T01:03:30.234Z,6.13
2018-04-24T01:05:58.674Z,5.40
2018-04-24T01:08:27.125Z,5.90
2018-04-24T01:10:55.567Z,5.67
2018-04-24T01:13:24.938Z,5.53
2018-04-24T01:15:53.377Z,6.73
2018-04-24T01:18:22.233Z,6.27
2018-04-24T01:20:50.677Z,6.03
2018-04-24T01:23:20.117Z,6.07
2018-04-24T01:25:48.318Z,5.40
2018-04-24T01:28:17.755Z,5.57
2018-04-24T01:30:45.843Z,5.30
2018-04-24T01:33:14.274Z,6.10
2018-04-24T01:35:42.719Z,6.00
2018-04-24T01:38:11.146Z,7.07
2018-04-24T01:40:39.600Z,7.33
2018-04-24T01:43:08.996Z,7.20
2018-04-24T01:45:38.404Z,7.57
2018-04-24T01:48:08.308Z,6.37
2018-04-24T01:50:38.064Z,7.00
2018-04-24T01:53:06.508Z,6.47
2018-04-24T01:55:34.946Z,6.57
2018-04-24T01:58:03.387Z,6.43
2018-04-24T02:00:31.819Z,6.70
2018-04-24T02:03:00.269Z,6.23
2018-04-24T02:05:28.712Z,6.47
2018-04-24T02:07:57.196Z,6.10
2018-04-24T02:10:25.404Z,5.93
2018-04-24T02:12:53.829Z,6.30
2018-04-24T02:15:23.125Z,5.77
2018-04-24T02:17:52.319Z,6.00
2018-04-24T02:20:21.526Z,6.57
2018-04-24T02:22:50.733Z,6.97
2018-04-24T02:25:19.164Z,6.50
2018-04-24T02:27:47.613Z,7.57
2018-04-24T02:30:16.049Z,7.43
2018-04-24T02:32:45.019Z,6.73
2018-04-24T02:35:13.450Z,6.53
2018-04-24T02:37:41.897Z,6.70
2018-04-24T02:40:11.103Z,6.40
2018-04-24T02:42:40.311Z,6.63
2018-04-24T02:45:09.713Z,6.57
2018-04-24T02:47:38.857Z,6.30
2018-04-24T02:50:07.493Z,7.33
2018-04-24T02:52:36.240Z,7.30
2018-04-24T02:55:04.345Z,6.57
2018-04-24T02:57:32.781Z,6.53
2018-04-24T03:00:01.226Z,6.63
2018-04-24T03:02:29.661Z,6.50
2018-04-24T03:04:58.884Z,6.30
2018-04-24T03:07:27.636Z,7.17
2018-04-24T03:09:56.830Z,6.70
2018-04-24T03:12:26.044Z,8.20
2018-04-24T03:14:56.270Z,6.60
2018-04-24T03:17:25.472Z,7.40
2018-04-24T03:19:53.900Z,8.77
2018-04-24T03:22:22.360Z,8.20
2018-04-24T03:24:50.788Z,7.90
2018-04-24T03:27:19.989Z,7.43
2018-04-24T03:29:49.204Z,7.00
2018-04-24T03:32:17.900Z,6.67
2018-04-24T03:34:46.344Z,6.93
2018-04-24T03:37:15.537Z,6.53
2018-04-24T03:39:44.758Z,6.87
2018-04-24T03:42:13.184Z,7.07
2018-04-24T03:44:42.384Z,6.53
2018-04-24T03:47:10.831Z,6.93
2018-04-24T03:49:39.257Z,7.13
2018-04-24T03:52:07.705Z,8.13
2018-04-24T03:54:36.207Z,7.40
2018-04-24T03:57:04.639Z,6.60
2018-04-24T03:59:33.073Z,7.23
2018-04-24T04:02:01.583Z,6.80
2018-04-24T04:04:30.153Z,6.67
2018-04-24T04:06:59.544Z,7.40
2018-04-24T04:09:28.748Z,6.97
2018-04-24T04:11:57.943Z,6.23
2018-04-24T04:14:27.143Z,7.13
2018-04-24T04:16:55.665Z,6.00
2018-04-24T04:19:35.418Z,6.10
2018-04-24T04:22:16.631Z,6.80
2018-04-24T04:24:45.973Z,6.63
2018-04-24T04:27:14.397Z,6.43
2018-04-24T04:29:42.849Z,6.67
2018-04-24T04:32:11.270Z,6.27
2018-04-24T04:34:40.471Z,6.73
2018-04-24T04:37:09.452Z,7.10
2018-04-24T04:39:37.891Z,5.60
2018-04-24T04:42:06.673Z,6.73
2018-04-24T04:44:35.094Z,6.53
2018-04-24T04:47:03.533Z,6.80
2018-04-24T04:49:31.965Z,7.17
2018-04-24T04:52:01.173Z,7.10
2018-04-24T04:54:29.606Z,5.80
2018-04-24T04:56:58.189Z,7.50
2018-04-24T04:59:26.626Z,7.20
2018-04-24T05:01:55.093Z,7.73
2018-04-24T05:04:23.535Z,7.17
2018-04-24T05:06:51.629Z,7.30
2018-04-24T05:09:20.845Z,7.80
2018-04-24T05:11:49.279Z,8.17
2018-04-24T05:14:17.711Z,7.60
2018-04-24T05:16:46.144Z,7.80
2018-04-24T05:19:14.597Z,8.73
2018-04-24T05:21:43.249Z,7.10
2018-04-24T05:24:12.682Z,8.97
2018-04-24T05:26:41.295Z,7.87
2018-04-24T05:29:13.121Z,7.53
2018-04-24T05:31:43.977Z,8.33
2018-04-24T05:34:12.682Z,8.23
2018-04-24T05:36:41.292Z,7.80
2018-04-24T05:39:09.718Z,7.53
2018-04-24T05:41:38.872Z,7.13
2018-04-24T05:44:07.974Z,7.50
2018-04-24T05:46:37.062Z,8.20
2018-04-24T05:49:05.505Z,7.13
2018-04-24T05:51:34.709Z,9.13
2018-04-24T05:54:03.155Z,9.23
2018-04-24T05:56:31.582Z,8.27
2018-04-24T05:59:00.033Z,8.80
2018-04-24T06:01:29.233Z,8.30
2018-04-24T06:03:58.459Z,8.10
2018-04-24T06:06:26.888Z,7.70
2018-04-24T06:08:55.343Z,8.00
2018-04-24T06:11:23.777Z,8.87
2018-04-24T06:13:52.196Z,8.27
2018-04-24T06:16:20.636Z,7.47
2018-04-24T06:18:49.083Z,7.70
2018-04-24T06:21:17.545Z,7.47
2018-04-24T06:23:45.649Z,7.20
2018-04-24T06:26:14.858Z,7.27
2018-04-24T06:28:43.351Z,7.70
2018-04-24T06:31:11.999Z,7.10
2018-04-24T06:33:41.222Z,7.93
2018-04-24T06:36:09.818Z,7.67
2018-04-24T06:38:39.142Z,7.13
2018-04-24T06:41:08.446Z,6.73
2018-04-24T06:43:37.560Z,7.43
2018-04-24T06:46:06.395Z,6.57
2018-04-24T06:48:34.836Z,6.57
2018-04-24T06:51:03.267Z,6.93
2018-04-24T06:53:31.698Z,7.60
2018-04-24T06:56:00.900Z,7.30
2018-04-24T06:58:30.123Z,7.70
2018-04-24T07:00:58.546Z,6.47
2018-04-24T07:03:26.975Z,6.57
2018-04-24T07:05:55.406Z,6.37
2018-04-24T07:08:23.853Z,6.00
2018-04-24T07:10:52.285Z,7.47
2018-04-24T07:13:21.480Z,6.37
2018-04-24T07:15:50.677Z,6.17
2018-04-24T07:18:19.867Z,6.80
2018-04-24T07:20:49.075Z,6.90
2018-04-24T07:23:18.272Z,6.80
2018-04-24T07:25:47.478Z,7.17
2018-04-24T07:28:15.900Z,6.90
2018-04-24T07:30:44.370Z,6.83
2018-04-24T07:33:12.811Z,6.50
2018-04-24T07:35:42.090Z,6.70
2018-04-24T07:38:11.339Z,6.70
2018-04-24T07:40:39.822Z,6.53
2018-04-24T07:43:09.023Z,5.53
2018-04-24T07:45:37.509Z,6.57
2018-04-24T07:48:05.615Z,6.53
2018-04-24T07:50:34.808Z,6.57
2018-04-24T07:53:03.236Z,5.90
2018-04-24T07:55:31.668Z,6.40
2018-04-24T07:58:00.877Z,6.40
2018-04-24T08:00:29.317Z,6.50
2018-04-24T08:02:57.742Z,6.50
2018-04-24T08:05:26.946Z,6.53
2018-04-24T08:07:55.385Z,6.03
2018-04-24T08:10:23.829Z,6.63
2018-04-24T08:12:52.268Z,6.47
2018-04-24T08:15:21.481Z,5.73
2018-04-24T08:17:49.912Z,6.20
2018-04-24T08:20:18.341Z,5.80
2018-04-24T08:22:46.829Z,5.57
2018-04-24T08:25:15.409Z,6.13
2018-04-24T08:27:44.033Z,6.40
2018-04-24T08:30:12.236Z,5.83
2018-04-24T08:32:41.437Z,6.50
2018-04-24T08:35:10.847Z,6.37
2018-04-24T08:37:39.309Z,5.90
2018-04-24T08:40:08.595Z,5.40
2018-04-24T08:42:37.186Z,6.07
2018-04-24T08:45:06.459Z,5.70
2018-04-24T08:47:34.922Z,6.47
2018-04-24T08:50:03.348Z,5.67
2018-04-24T08:52:32.567Z,6.20
2018-04-24T08:55:00.996Z,6.13
2018-04-24T08:57:29.443Z,6.20
2018-04-24T08:59:57.865Z,5.80
2018-04-24T09:02:26.289Z,5.97
2018-04-24T09:04:55.414Z,5.93
2018-04-24T09:07:23.861Z,5.80
2018-04-24T09:09:52.290Z,5.37
2018-04-24T09:12:20.731Z,5.43
2018-04-24T09:14:49.158Z,5.33
2018-04-24T09:17:18.136Z,5.60
2018-04-24T09:19:46.554Z,5.70
2018-04-24T09:22:14.994Z,6.13
2018-04-24T09:24:43.463Z,5.80
2018-04-24T09:27:11.978Z,5.80
2018-04-24T09:29:40.304Z,5.87
2018-04-24T09:32:08.725Z,6.07
2018-04-24T09:34:37.572Z,5.87
2018-04-24T09:37:05.996Z,6.30
2018-04-24T09:39:35.196Z,5.83
2018-04-24T09:42:03.644Z,5.83
2018-04-24T09:44:31.871Z,6.37
2018-04-24T09:47:00.493Z,5.57
2018-04-24T09:49:28.999Z,5.70
2018-04-24T09:51:58.324Z,5.23
2018-04-24T09:54:26.803Z,5.47
2018-04-24T09:56:55.294Z,5.43
2018-04-24T09:59:23.898Z,5.57
2018-04-24T10:01:52.358Z,6.10
2018-04-24T10:04:21.721Z,6.50
2018-04-24T10:06:50.689Z,6.23
2018-04-24T10:09:18.885Z,6.00
2018-04-24T10:11:48.109Z,6.07
2018-04-24T10:14:16.552Z,5.73
2018-04-24T10:16:45.754Z,5.57
2018-04-24T10:19:14.966Z,6.40
2018-04-24T10:21:43.399Z,6.53
2018-04-24T10:24:11.842Z,6.30
2018-04-24T10:26:40.268Z,6.50
2018-04-24T10:29:08.712Z,6.03
2018-04-24T10:31:37.275Z,6.50
2018-04-24T10:34:05.712Z,5.83
2018-04-24T10:36:34.138Z,5.40
2018-04-24T10:39:02.608Z,5.30
2018-04-24T10:41:31.019Z,5.17
2018-04-24T10:43:59.444Z,5.27
2018-04-24T10:46:28.659Z,5.30
2018-04-24T10:48:57.080Z,5.77
2018-04-24T10:51:25.582Z,5.53
2018-04-24T10:53:54.895Z,5.23
2018-04-24T10:56:24.096Z,4.90
2018-04-24T10:58:52.956Z,5.37
2018-04-24T11:01:21.434Z,5.33
2018-04-24T11:03:49.862Z,5.20
2018-04-24T11:06:18.306Z,5.30
2018-04-24T11:08:47.505Z,4.93
2018-04-24T11:11:16.716Z,4.83
2018-04-24T11:13:45.911Z,5.10
2018-04-24T12:38:13.175Z,5.07
2018-04-24T12:40:42.575Z,5.10
2018-04-24T12:43:10.997Z,5.57
2018-04-24T12:45:39.822Z,5.20
2018-04-24T12:48:09.782Z,5.00
2018-04-24T12:50:38.228Z,4.47
2018-04-24T12:53:06.660Z,5.43
2018-04-24T12:55:35.105Z,5.30
2018-04-24T12:58:03.534Z,5.53
2018-04-24T13:00:31.974Z,5.27
2018-04-24T13:03:00.416Z,5.83
2018-04-24T13:05:29.622Z,5.40
2018-04-24T13:07:58.114Z,5.17
2018-04-24T13:10:26.529Z,5.07
2018-04-24T13:12:54.971Z,5.10
2018-04-24T13:15:23.190Z,5.47
2018-04-24T13:17:51.613Z,5.90
2018-04-24T13:20:20.037Z,5.40
2018-04-24T13:22:48.471Z,5.67
2018-04-24T13:25:16.909Z,5.47
2018-04-24T13:27:45.077Z,5.27
2018-04-24T13:30:13.511Z,5.17
2018-04-24T13:32:41.952Z,4.97
2018-04-24T13:35:11.141Z,4.97
2018-04-24T13:37:39.608Z,4.70
2018-04-24T13:40:08.189Z,5.30
2018-04-24T13:42:36.726Z,5.40
2018-04-24T13:45:05.154Z,5.13
2018-04-24T13:47:33.618Z,5.80
2018-04-24T13:50:02.064Z,5.73
2018-04-24T13:52:30.489Z,5.30
2018-04-24T13:54:58.938Z,5.30
2018-04-24T13:57:27.404Z,9.00
2018-04-24T13:59:55.847Z,6.20
2018-04-24T14:02:25.053Z,6.60
2018-04-24T14:04:53.501Z,5.77
2018-04-24T14:07:21.970Z,5.43
2018-04-24T14:09:50.424Z,4.87
2018-04-24T14:12:18.903Z,5.20
2018-04-24T14:14:48.253Z,4.90
2018-04-24T14:17:17.466Z,5.37
2018-04-24T14:19:45.905Z,5.50
2018-04-24T14:22:14.334Z,5.73
2018-04-24T14:24:42.790Z,5.40
2018-04-24T14:27:11.983Z,6.23
2018-04-24T14:29:41.183Z,6.10
2018-04-24T14:32:10.377Z,6.23
2018-04-24T14:34:39.586Z,6.00
2018-04-24T14:37:08.578Z,6.10
2018-04-24T14:39:37.791Z,6.80
2018-04-24T14:42:06.205Z,5.03
2018-04-24T14:44:34.639Z,5.50
2018-04-24T14:47:03.236Z,5.57
2018-04-24T14:49:31.656Z,5.60
2018-04-24T14:52:00.097Z,5.20
2018-04-24T14:54:28.530Z,5.40
2018-04-24T14:56:57.786Z,5.13
2018-04-24T14:59:26.218Z,5.40
2018-04-24T15:01:55.421Z,5.63
2018-04-24T15:04:23.852Z,5.50
2018-04-24T15:06:52.295Z,5.40
2018-04-24T15:09:20.722Z,5.23
2018-04-24T15:11:49.161Z,4.67
2018-04-24T15:14:17.591Z,5.23
2018-04-24T15:16:46.806Z,5.40
2018-04-24T15:19:15.248Z,5.70
2018-04-24T15:21:43.674Z,5.50
2018-04-24T15:24:12.115Z,5.63
2018-04-24T15:26:40.590Z,5.87
2018-04-24T15:29:09.957Z,5.43
2018-04-24T15:31:38.985Z,5.50
2018-04-24T15:34:07.422Z,6.17
2018-04-24T15:36:35.860Z,6.03
2018-04-24T15:39:04.182Z,5.83
2018-04-24T15:41:32.615Z,5.67
2018-04-24T15:44:01.814Z,5.90
2018-04-24T15:46:31.023Z,5.10
2018-04-24T15:48:59.443Z,5.40
2018-04-24T15:51:27.884Z,5.77
2018-04-24T15:53:56.312Z,6.07
2018-04-24T15:56:24.739Z,6.00
2018-04-24T15:58:53.159Z,5.03
2018-04-24T16:01:21.597Z,5.63
2018-04-24T16:03:50.029Z,5.27
2018-04-24T16:06:18.482Z,5.00
2018-04-24T16:08:46.908Z,5.50
2018-04-24T16:11:16.311Z,5.43
2018-04-24T16:13:45.697Z,6.20
2018-04-24T16:16:14.407Z,6.07
2018-04-24T16:18:42.857Z,6.30
2018-04-24T16:21:11.271Z,5.57
2018-04-24T16:23:39.730Z,5.90
2018-04-24T16:26:08.923Z,5.90
2018-04-24T16:28:38.362Z,5.90
2018-04-24T16:31:06.729Z,5.90
2018-04-24T16:33:35.158Z,5.87
2018-04-24T16:36:03.602Z,5.53
2018-04-24T16:38:32.041Z,5.93
2018-04-24T16:41:01.247Z,6.23
2018-04-24T16:43:30.297Z,5.70
2018-04-24T16:45:58.489Z,5.40
2018-04-24T16:48:26.946Z,5.83
2018-04-24T16:50:55.372Z,6.40
2018-04-24T16:53:24.568Z,5.93
2018-04-24T16:55:53.771Z,6.50
2018-04-24T16:58:22.206Z,6.10
2018-04-24T17:00:50.730Z,5.47
2018-04-24T17:03:19.269Z,6.20
2018-04-24T17:05:47.690Z,5.57
2018-04-24T17:08:16.107Z,6.10
2018-04-24T17:10:44.536Z,5.70
2018-04-24T17:13:13.729Z,5.87
2018-04-24T17:15:42.940Z,6.43
2018-04-24T17:18:11.381Z,5.27
2018-04-24T17:20:39.808Z,5.70
2018-04-24T17:23:09.120Z,6.00
2018-04-24T17:25:37.615Z,6.13
2018-04-24T17:28:07.513Z,5.57
2018-04-24T17:30:35.940Z,6.90
2018-04-24T17:33:05.150Z,6.97
2018-04-24T17:35:34.348Z,7.77
2018-04-24T17:38:03.216Z,6.77
2018-04-24T17:40:31.955Z,6.13
2018-04-24T17:43:00.441Z,7.40
2018-04-24T17:45:28.869Z,7.00
2018-04-24T17:47:58.082Z,7.00
2018-04-24T17:50:27.269Z,5.63
2018-04-24T17:52:56.484Z,5.00
2018-04-24T17:55:24.914Z,5.30
2018-04-24T17:57:53.341Z,5.10
2018-04-24T18:00:21.793Z,4.70
2018-04-24T18:02:51.239Z,4.53
2018-04-24T18:05:19.703Z,4.80
2018-04-24T18:07:48.160Z,5.10
2018-04-24T18:10:17.365Z,5.00
2018-04-24T18:12:46.570Z,4.80
2018-04-24T18:15:15.005Z,4.83
2018-04-24T18:17:43.440Z,5.07
2018-04-24T18:20:11.905Z,5.17
2018-04-24T18:22:41.099Z,5.07
2018-04-24T18:25:09.669Z,5.13
2018-04-24T18:27:39.843Z,4.73
2018-04-24T18:30:09.166Z,5.00
2018-04-24T18:32:37.640Z,5.00
2018-04-24T18:35:06.105Z,5.27
2018-04-24T18:37:34.972Z,4.90
2018-04-24T18:40:03.394Z,4.80
2018-04-24T18:42:31.832Z,5.07
2018-04-24T18:45:00.534Z,4.90
2018-04-24T18:47:29.786Z,4.73
2018-04-24T18:49:58.617Z,4.47
2018-04-24T18:52:27.855Z,5.07
2018-04-24T18:54:56.822Z,5.00
2018-04-24T18:57:25.266Z,4.90
2018-04-24T18:59:53.709Z,5.00
2018-04-24T19:02:23.146Z,5.13
2018-04-24T19:04:51.648Z,4.73
2018-04-24T19:07:20.278Z,5.40
2018-04-24T19:09:49.465Z,5.63
2018-04-24T19:12:18.668Z,4.73
2018-04-24T19:14:47.869Z,5.57
2018-04-24T19:17:17.071Z,5.30
2018-04-24T19:19:45.497Z,5.70
2018-04-24T19:22:13.923Z,5.60
2018-04-24T19:24:48.614Z,5.13
2018-04-24T19:27:17.058Z,5.57
2018-04-24T19:29:45.492Z,4.67
2018-04-24T19:32:20.222Z,5.33
2018-04-24T19:34:49.773Z,5.10
2018-04-24T19:37:18.261Z,5.30
2018-04-24T19:39:52.237Z,5.80
2018-04-24T19:42:21.533Z,5.20
2018-04-24T19:44:49.967Z,5.30
2018-04-24T19:47:18.395Z,5.73
2018-04-24T19:49:52.234Z,5.50
2018-04-24T19:52:20.651Z,5.23
2018-04-24T19:54:55.252Z,5.80
2018-04-24T19:57:23.673Z,6.07
2018-04-24T19:59:52.086Z,5.77
2018-04-24T20:02:20.852Z,6.20
2018-04-24T20:04:49.346Z,5.80
2018-04-24T20:07:17.769Z,5.30
2018-04-24T20:09:46.969Z,5.47
2018-04-24T20:12:16.424Z,5.77
2018-04-24T20:14:45.689Z,5.67
2018-04-24T20:17:14.297Z,5.73
2018-04-24T20:19:43.439Z,5.77
2018-04-24T20:22:11.926Z,5.53
2018-04-24T20:24:41.145Z,5.17
2018-04-24T20:27:10.049Z,5.87
2018-04-24T20:29:38.467Z,5.57
2018-04-24T20:32:06.968Z,5.90
2018-04-24T20:34:35.605Z,5.70
2018-04-24T20:37:04.080Z,5.83
2018-04-24T20:39:33.280Z,5.93
2018-04-24T20:42:02.484Z,5.90
2018-04-24T20:44:30.923Z,5.90
2018-04-24T20:46:59.595Z,6.30
2018-04-24T20:49:28.830Z,6.07
2018-04-24T20:51:57.798Z,6.20
2018-04-24T20:54:26.013Z,5.80
2018-04-24T20:56:54.682Z,5.53
2018-04-24T20:59:23.157Z,6.00
2018-04-24T21:01:51.334Z,5.73
2018-04-24T21:04:20.520Z,6.37
2018-04-24T21:06:49.730Z,5.83
2018-04-24T21:09:18.945Z,5.90
2018-04-24T21:11:47.387Z,6.23
2018-04-24T21:14:15.820Z,6.37
2018-04-24T21:16:44.028Z,6.20
2018-04-24T21:19:12.448Z,6.20
2018-04-24T21:21:40.892Z,6.00
2018-04-24T21:24:09.321Z,6.40
2018-04-24T21:26:39.012Z,5.83
2018-04-24T21:29:07.708Z,6.10
2018-04-24T21:31:36.153Z,6.50
2018-04-24T21:34:05.363Z,7.10
2018-04-24T21:36:33.792Z,6.33
2018-04-24T21:39:02.218Z,5.87
2018-04-24T21:41:31.438Z,6.50
2018-04-24T21:43:59.861Z,6.63
2018-04-24T21:46:28.281Z,6.23
2018-04-24T21:48:56.717Z,6.53
2018-04-24T21:51:25.148Z,7.37
2018-04-24T21:53:53.593Z,6.70
2018-04-24T21:56:22.807Z,7.77
2018-04-24T21:58:52.014Z,7.20
2018-04-24T22:01:20.453Z,7.00
2018-04-24T22:03:48.864Z,6.63
2018-04-24T22:06:17.310Z,6.70
2018-04-24T22:08:45.735Z,6.70
2018-04-24T22:11:14.190Z,7.27
2018-04-24T22:13:43.380Z,7.80
2018-04-24T22:16:12.555Z,7.20
2018-04-24T22:18:40.997Z,6.97
2018-04-24T22:21:10.352Z,6.73
2018-04-24T22:23:39.748Z,6.43
2018-04-24T22:26:08.192Z,7.40
2018-04-24T22:28:36.624Z,7.27
2018-04-24T22:31:06.428Z,6.87
2018-04-24T22:33:35.649Z,6.73
2018-04-24T22:36:05.040Z,6.50
2018-04-24T22:38:33.454Z,6.80
2018-04-24T22:41:02.733Z,6.57
2018-04-24T22:43:31.150Z,6.27
2018-04-24T22:45:59.600Z,6.63
2018-04-24T22:48:28.015Z,5.77
2018-04-24T22:50:56.428Z,6.57
2018-04-24T22:53:24.861Z,5.90
2018-04-24T22:55:53.089Z,7.63
2018-04-24T22:58:21.545Z,9.03
2018-04-24T23:00:50.736Z,7.70
2018-04-24T23:03:19.915Z,7.40
2018-04-24T23:05:48.359Z,7.70
2018-04-24T23:08:16.790Z,7.47
2018-04-24T23:10:57.191Z,7.23
2018-04-24T23:13:37.032Z,7.00
2018-04-24T23:16:16.666Z,7.70
2018-04-24T23:18:56.432Z,7.67
2018-04-24T23:21:23.701Z,8.43
2018-04-24T23:23:52.145Z,8.03
2018-04-24T23:26:20.233Z,8.73
2018-04-24T23:28:48.651Z,7.37
2018-04-24T23:31:16.426Z,8.40
2018-04-24T23:33:45.618Z,8.40
2018-04-24T23:36:14.824Z,7.97
2018-04-24T23:38:44.017Z,7.53
2018-04-24T23:41:12.884Z,7.20
2018-04-24T23:43:41.336Z,7.93
2018-04-24T23:46:09.809Z,7.83
2018-04-24T23:48:38.221Z,7.60
2018-04-24T23:51:06.659Z,8.00
2018-04-24T23:53:35.097Z,7.70
2018-04-24T23:56:03.960Z,8.10
2018-04-24T23:58:32.400Z,7.73
